sensor_id;sensor_type;location;lat;lon;timestamp;P1;durP1;ratioP1;P2;durP2;ratioP2
42598;SDS011;28225;42.714;23.860;2023-05-15T00:00:09;17.73;;;15.13;;
42598;SDS011;28225;42.714;23.860;2023-05-15T00:00:25;18.52;;;14.93;;
42598;SDS011;28225;42.714;23.860;2023-05-15T00:00:40;19.63;;;14.83;;
42598;SDS011;28225;42.714;23.860;2023-05-15T00:00:56;17.10;;;13.48;;
42598;SDS011;28225;42.714;23.860;2023-05-15T00:01:11;15.50;;;12.97;;
42598;SDS011;28225;42.714;23.860;2023-05-15T00:01:26;15.37;;;13.30;;
42598;SDS011;28225;42.714;23.860;2023-05-15T00:01:42;15.45;;;13.63;;
42598;SDS011;28225;42.714;23.860;2023-05-15T00:01:57;15.93;;;13.97;;
42598;SDS011;28225;42.714;23.860;2023-05-15T00:02:13;18.38;;;14.45;;
42598;SDS011;28225;42.714;23.860;2023-05-15T00:02:28;21.63;;;15.40;;
42598;SDS011;28225;42.714;23.860;2023-05-15T00:02:44;20.37;;;15.27;;
42598;SDS011;28225;42.714;23.860;2023-05-15T00:03:00;18.30;;;14.25;;
42598;SDS011;28225;42.714;23.860;2023-05-15T00:03:16;17.85;;;13.65;;
42598;SDS011;28225;42.714;23.860;2023-05-15T00:03:32;15.77;;;13.30;;
42598;SDS011;28225;42.714;23.860;2023-05-15T00:03:47;15.27;;;12.60;;
42598;SDS011;28225;42.714;23.860;2023-05-15T00:04:03;16.38;;;12.88;;
42598;SDS011;28225;42.714;23.860;2023-05-15T00:04:18;17.20;;;14.10;;
42598;SDS011;28225;42.714;23.860;2023-05-15T00:04:34;19.92;;;14.45;;
42598;SDS011;28225;42.714;23.860;2023-05-15T00:04:49;20.00;;;14.37;;
42598;SDS011;28225;42.714;23.860;2023-05-15T00:05:05;17.67;;;14.30;;
42598;SDS011;28225;42.714;23.860;2023-05-15T00:05:21;17.77;;;14.13;;
42598;SDS011;28225;42.714;23.860;2023-05-15T00:05:37;18.45;;;14.20;;
42598;SDS011;28225;42.714;23.860;2023-05-15T00:05:53;19.10;;;14.13;;
42598;SDS011;28225;42.714;23.860;2023-05-15T00:06:08;16.83;;;13.10;;
42598;SDS011;28225;42.714;23.860;2023-05-15T00:06:24;14.23;;;12.05;;
42598;SDS011;28225;42.714;23.860;2023-05-15T00:06:39;14.30;;;12.50;;
42598;SDS011;28225;42.714;23.860;2023-05-15T00:06:55;15.13;;;12.98;;
42598;SDS011;28225;42.714;23.860;2023-05-15T00:07:10;23.57;;;14.00;;
42598;SDS011;28225;42.714;23.860;2023-05-15T00:07:25;25.03;;;14.97;;
42598;SDS011;28225;42.714;23.860;2023-05-15T00:07:41;16.23;;;14.18;;
42598;SDS011;28225;42.714;23.860;2023-05-15T00:07:56;16.23;;;13.90;;
42598;SDS011;28225;42.714;23.860;2023-05-15T00:08:12;18.15;;;14.15;;
42598;SDS011;28225;42.714;23.860;2023-05-15T00:08:27;18.70;;;14.73;;
42598;SDS011;28225;42.714;23.860;2023-05-15T00:08:43;17.80;;;14.48;;
42598;SDS011;28225;42.714;23.860;2023-05-15T00:08:58;16.53;;;13.93;;
42598;SDS011;28225;42.714;23.860;2023-05-15T00:09:14;16.95;;;14.05;;
42598;SDS011;28225;42.714;23.860;2023-05-15T00:09:29;20.07;;;14.53;;
42598;SDS011;28225;42.714;23.860;2023-05-15T00:09:45;18.85;;;14.07;;
42598;SDS011;28225;42.714;23.860;2023-05-15T00:10:00;17.33;;;13.43;;
42598;SDS011;28225;42.714;23.860;2023-05-15T00:10:16;17.25;;;13.85;;
42598;SDS011;28225;42.714;23.860;2023-05-15T00:10:32;17.10;;;13.87;;
42598;SDS011;28225;42.714;23.860;2023-05-15T00:10:47;16.33;;;13.65;;
42598;SDS011;28225;42.714;23.860;2023-05-15T00:11:02;16.23;;;13.83;;
42598;SDS011;28225;42.714;23.860;2023-05-15T00:11:18;17.45;;;14.15;;
42598;SDS011;28225;42.714;23.860;2023-05-15T00:11:34;19.63;;;14.20;;
42598;SDS011;28225;42.714;23.860;2023-05-15T00:11:49;19.92;;;14.30;;
42598;SDS011;28225;42.714;23.860;2023-05-15T00:12:05;18.17;;;13.57;;
42598;SDS011;28225;42.714;23.860;2023-05-15T00:12:20;18.23;;;13.50;;
42598;SDS011;28225;42.714;23.860;2023-05-15T00:12:36;17.98;;;13.82;;
42598;SDS011;28225;42.714;23.860;2023-05-15T00:12:51;18.77;;;14.17;;
42598;SDS011;28225;42.714;23.860;2023-05-15T00:13:07;17.40;;;14.10;;
42598;SDS011;28225;42.714;23.860;2023-05-15T00:13:22;15.20;;;13.57;;
42598;SDS011;28225;42.714;23.860;2023-05-15T00:13:37;16.83;;;13.43;;
42598;SDS011;28225;42.714;23.860;2023-05-15T00:13:53;17.70;;;13.40;;
42598;SDS011;28225;42.714;23.860;2023-05-15T00:14:08;16.25;;;13.15;;
42598;SDS011;28225;42.714;23.860;2023-05-15T00:14:23;17.07;;;13.57;;
42598;SDS011;28225;42.714;23.860;2023-05-15T00:14:39;16.83;;;13.50;;
42598;SDS011;28225;42.714;23.860;2023-05-15T00:14:54;16.77;;;13.23;;
42598;SDS011;28225;42.714;23.860;2023-05-15T00:15:10;17.77;;;14.20;;
42598;SDS011;28225;42.714;23.860;2023-05-15T00:15:25;16.55;;;14.02;;
42598;SDS011;28225;42.714;23.860;2023-05-15T00:15:40;15.10;;;12.97;;
42598;SDS011;28225;42.714;23.860;2023-05-15T00:15:56;15.30;;;12.70;;
42598;SDS011;28225;42.714;23.860;2023-05-15T00:16:11;15.65;;;12.95;;
42598;SDS011;28225;42.714;23.860;2023-05-15T00:16:27;15.50;;;12.80;;
42598;SDS011;28225;42.714;23.860;2023-05-15T00:16:42;16.15;;;12.93;;
42598;SDS011;28225;42.714;23.860;2023-05-15T00:16:58;15.17;;;13.03;;
42598;SDS011;28225;42.714;23.860;2023-05-15T00:17:13;13.97;;;12.20;;
42598;SDS011;28225;42.714;23.860;2023-05-15T00:17:28;15.35;;;12.52;;
42598;SDS011;28225;42.714;23.860;2023-05-15T00:17:44;17.10;;;14.27;;
42598;SDS011;28225;42.714;23.860;2023-05-15T00:17:59;16.25;;;14.45;;
42598;SDS011;28225;42.714;23.860;2023-05-15T00:18:14;15.53;;;13.37;;
42598;SDS011;28225;42.714;23.860;2023-05-15T00:18:30;16.30;;;13.37;;
42598;SDS011;28225;42.714;23.860;2023-05-15T00:18:45;16.33;;;13.25;;
42598;SDS011;28225;42.714;23.860;2023-05-15T00:19:01;18.73;;;13.60;;
42598;SDS011;28225;42.714;23.860;2023-05-15T00:19:16;20.02;;;14.07;;
42598;SDS011;28225;42.714;23.860;2023-05-15T00:19:32;19.23;;;13.90;;
42598;SDS011;28225;42.714;23.860;2023-05-15T00:19:47;19.53;;;14.20;;
42598;SDS011;28225;42.714;23.860;2023-05-15T00:20:02;18.92;;;14.70;;
42598;SDS011;28225;42.714;23.860;2023-05-15T00:20:19;19.00;;;15.07;;
42598;SDS011;28225;42.714;23.860;2023-05-15T00:20:34;17.43;;;14.33;;
42598;SDS011;28225;42.714;23.860;2023-05-15T00:20:50;19.13;;;14.45;;
42598;SDS011;28225;42.714;23.860;2023-05-15T00:21:06;20.38;;;14.90;;
42598;SDS011;28225;42.714;23.860;2023-05-15T00:21:23;18.65;;;14.93;;
42598;SDS011;28225;42.714;23.860;2023-05-15T00:21:38;18.67;;;15.10;;
42598;SDS011;28225;42.714;23.860;2023-05-15T00:21:53;18.80;;;15.03;;
42598;SDS011;28225;42.714;23.860;2023-05-15T00:22:09;19.52;;;15.23;;
42598;SDS011;28225;42.714;23.860;2023-05-15T00:22:24;18.70;;;14.50;;
42598;SDS011;28225;42.714;23.860;2023-05-15T00:22:40;17.63;;;14.07;;
42598;SDS011;28225;42.714;23.860;2023-05-15T00:22:55;17.97;;;14.00;;
42598;SDS011;28225;42.714;23.860;2023-05-15T00:23:12;17.70;;;14.05;;
42598;SDS011;28225;42.714;23.860;2023-05-15T00:23:27;17.13;;;14.23;;
42598;SDS011;28225;42.714;23.860;2023-05-15T00:23:42;17.80;;;14.82;;
42598;SDS011;28225;42.714;23.860;2023-05-15T00:23:58;18.87;;;14.83;;
42598;SDS011;28225;42.714;23.860;2023-05-15T00:24:13;19.20;;;14.60;;
42598;SDS011;28225;42.714;23.860;2023-05-15T00:24:29;16.88;;;13.75;;
42598;SDS011;28225;42.714;23.860;2023-05-15T00:24:44;15.57;;;13.00;;
42598;SDS011;28225;42.714;23.860;2023-05-15T00:24:59;16.58;;;13.15;;
42598;SDS011;28225;42.714;23.860;2023-05-15T00:25:15;16.27;;;13.23;;
42598;SDS011;28225;42.714;23.860;2023-05-15T00:25:30;14.40;;;12.43;;
42598;SDS011;28225;42.714;23.860;2023-05-15T00:25:46;14.23;;;12.50;;
42598;SDS011;28225;42.714;23.860;2023-05-15T00:26:01;15.30;;;13.13;;
42598;SDS011;28225;42.714;23.860;2023-05-15T00:26:17;15.43;;;13.10;;
42598;SDS011;28225;42.714;23.860;2023-05-15T00:26:32;16.60;;;13.47;;
42598;SDS011;28225;42.714;23.860;2023-05-15T00:26:47;17.60;;;14.10;;
42598;SDS011;28225;42.714;23.860;2023-05-15T00:27:03;17.55;;;13.90;;
42598;SDS011;28225;42.714;23.860;2023-05-15T00:27:18;17.87;;;13.30;;
42598;SDS011;28225;42.714;23.860;2023-05-15T00:27:34;17.13;;;12.93;;
42598;SDS011;28225;42.714;23.860;2023-05-15T00:27:50;16.35;;;12.85;;
42598;SDS011;28225;42.714;23.860;2023-05-15T00:28:05;16.60;;;13.07;;
42598;SDS011;28225;42.714;23.860;2023-05-15T00:28:20;15.83;;;13.23;;
42598;SDS011;28225;42.714;23.860;2023-05-15T00:28:36;15.05;;;12.95;;
42598;SDS011;28225;42.714;23.860;2023-05-15T00:28:51;15.40;;;12.73;;
42598;SDS011;28225;42.714;23.860;2023-05-15T00:29:06;16.07;;;13.40;;
42598;SDS011;28225;42.714;23.860;2023-05-15T00:29:22;16.58;;;13.68;;
42598;SDS011;28225;42.714;23.860;2023-05-15T00:29:37;16.20;;;13.37;;
42598;SDS011;28225;42.714;23.860;2023-05-15T00:29:53;18.27;;;13.50;;
42598;SDS011;28225;42.714;23.860;2023-05-15T00:30:08;20.10;;;13.50;;
42598;SDS011;28225;42.714;23.860;2023-05-15T00:30:24;17.17;;;13.32;;
42598;SDS011;28225;42.714;23.860;2023-05-15T00:30:39;15.90;;;13.27;;
42598;SDS011;28225;42.714;23.860;2023-05-15T00:30:55;15.10;;;12.67;;
42598;SDS011;28225;42.714;23.860;2023-05-15T00:31:10;14.65;;;12.15;;
42598;SDS011;28225;42.714;23.860;2023-05-15T00:31:27;16.27;;;13.02;;
42598;SDS011;28225;42.714;23.860;2023-05-15T00:31:42;17.13;;;13.20;;
42598;SDS011;28225;42.714;23.860;2023-05-15T00:31:57;15.73;;;12.27;;
42598;SDS011;28225;42.714;23.860;2023-05-15T00:32:13;14.17;;;11.83;;
42598;SDS011;28225;42.714;23.860;2023-05-15T00:32:28;13.50;;;11.98;;
42598;SDS011;28225;42.714;23.860;2023-05-15T00:32:43;13.23;;;11.83;;
42598;SDS011;28225;42.714;23.860;2023-05-15T00:32:59;15.50;;;11.70;;
42598;SDS011;28225;42.714;23.860;2023-05-15T00:33:14;16.92;;;12.23;;
42598;SDS011;28225;42.714;23.860;2023-05-15T00:33:30;14.68;;;12.18;;
42598;SDS011;28225;42.714;23.860;2023-05-15T00:33:46;14.63;;;11.50;;
42598;SDS011;28225;42.714;23.860;2023-05-15T00:34:01;15.23;;;11.70;;
42598;SDS011;28225;42.714;23.860;2023-05-15T00:34:16;15.40;;;12.63;;
42598;SDS011;28225;42.714;23.860;2023-05-15T00:34:32;16.17;;;13.18;;
42598;SDS011;28225;42.714;23.860;2023-05-15T00:34:47;17.07;;;13.53;;
42598;SDS011;28225;42.714;23.860;2023-05-15T00:35:03;15.80;;;13.33;;
42598;SDS011;28225;42.714;23.860;2023-05-15T00:35:19;16.30;;;13.23;;
42598;SDS011;28225;42.714;23.860;2023-05-15T00:35:34;16.33;;;13.68;;
42598;SDS011;28225;42.714;23.860;2023-05-15T00:35:50;16.10;;;14.10;;
42598;SDS011;28225;42.714;23.860;2023-05-15T00:36:05;16.17;;;14.17;;
42598;SDS011;28225;42.714;23.860;2023-05-15T00:36:21;17.33;;;14.13;;
42598;SDS011;28225;42.714;23.860;2023-05-15T00:36:38;18.52;;;14.70;;
42598;SDS011;28225;42.714;23.860;2023-05-15T00:36:53;17.27;;;14.18;;
42598;SDS011;28225;42.714;23.860;2023-05-15T00:37:08;16.97;;;13.63;;
42598;SDS011;28225;42.714;23.860;2023-05-15T00:37:24;17.97;;;13.73;;
42598;SDS011;28225;42.714;23.860;2023-05-15T00:37:39;17.02;;;13.20;;
42598;SDS011;28225;42.714;23.860;2023-05-15T00:37:55;16.47;;;13.17;;
42598;SDS011;28225;42.714;23.860;2023-05-15T00:38:10;15.87;;;13.13;;
42598;SDS011;28225;42.714;23.860;2023-05-15T00:38:25;15.68;;;12.40;;
42598;SDS011;28225;42.714;23.860;2023-05-15T00:38:41;17.63;;;12.87;;
42598;SDS011;28225;42.714;23.860;2023-05-15T00:38:56;16.30;;;12.43;;
42598;SDS011;28225;42.714;23.860;2023-05-15T00:39:12;15.55;;;12.32;;
42598;SDS011;28225;42.714;23.860;2023-05-15T00:39:27;16.48;;;13.18;;
42598;SDS011;28225;42.714;23.860;2023-05-15T00:39:43;16.20;;;13.13;;
42598;SDS011;28225;42.714;23.860;2023-05-15T00:39:58;17.40;;;13.83;;
42598;SDS011;28225;42.714;23.860;2023-05-15T00:40:17;17.35;;;14.43;;
42598;SDS011;28225;42.714;23.860;2023-05-15T00:40:36;19.33;;;15.05;;
42598;SDS011;28225;42.714;23.860;2023-05-15T00:40:52;20.33;;;15.05;;
42598;SDS011;28225;42.714;23.860;2023-05-15T00:41:09;18.63;;;14.43;;
42598;SDS011;28225;42.714;23.860;2023-05-15T00:41:25;17.45;;;13.93;;
42598;SDS011;28225;42.714;23.860;2023-05-15T00:41:42;19.05;;;14.18;;
42598;SDS011;28225;42.714;23.860;2023-05-15T00:41:59;18.08;;;13.70;;
42598;SDS011;28225;42.714;23.860;2023-05-15T00:42:17;17.95;;;13.13;;
42598;SDS011;28225;42.714;23.860;2023-05-15T00:42:33;18.92;;;13.27;;
42598;SDS011;28225;42.714;23.860;2023-05-15T00:42:49;17.58;;;13.55;;
42598;SDS011;28225;42.714;23.860;2023-05-15T00:43:05;18.00;;;13.50;;
42598;SDS011;28225;42.714;23.860;2023-05-15T00:43:20;19.70;;;13.52;;
42598;SDS011;28225;42.714;23.860;2023-05-15T00:43:37;25.00;;;14.17;;
42598;SDS011;28225;42.714;23.860;2023-05-15T00:43:54;26.92;;;14.20;;
42598;SDS011;28225;42.714;23.860;2023-05-15T00:44:09;25.33;;;14.25;;
42598;SDS011;28225;42.714;23.860;2023-05-15T00:44:25;27.77;;;14.40;;
42598;SDS011;28225;42.714;23.860;2023-05-15T00:44:42;23.48;;;14.52;;
42598;SDS011;28225;42.714;23.860;2023-05-15T00:44:59;22.25;;;14.40;;
42598;SDS011;28225;42.714;23.860;2023-05-15T00:45:14;20.02;;;14.32;;
42598;SDS011;28225;42.714;23.860;2023-05-15T00:45:30;19.27;;;14.37;;
42598;SDS011;28225;42.714;23.860;2023-05-15T00:45:46;18.88;;;14.52;;
42598;SDS011;28225;42.714;23.860;2023-05-15T00:46:02;16.60;;;13.27;;
42598;SDS011;28225;42.714;23.860;2023-05-15T00:46:18;15.70;;;12.82;;
42598;SDS011;28225;42.714;23.860;2023-05-15T00:46:34;18.50;;;14.30;;
42598;SDS011;28225;42.714;23.860;2023-05-15T00:46:51;18.02;;;14.15;;
42598;SDS011;28225;42.714;23.860;2023-05-15T00:47:07;18.02;;;13.85;;
42598;SDS011;28225;42.714;23.860;2023-05-15T00:47:24;17.98;;;14.35;;
42598;SDS011;28225;42.714;23.860;2023-05-15T00:47:39;17.70;;;14.57;;
42598;SDS011;28225;42.714;23.860;2023-05-15T00:47:56;16.17;;;13.52;;
42598;SDS011;28225;42.714;23.860;2023-05-15T00:48:12;16.70;;;13.57;;
42598;SDS011;28225;42.714;23.860;2023-05-15T00:48:28;17.50;;;13.95;;
42598;SDS011;28225;42.714;23.860;2023-05-15T00:48:44;17.90;;;13.93;;
42598;SDS011;28225;42.714;23.860;2023-05-15T00:48:59;18.67;;;13.63;;
42598;SDS011;28225;42.714;23.860;2023-05-15T00:49:15;19.00;;;13.48;;
42598;SDS011;28225;42.714;23.860;2023-05-15T00:49:32;19.55;;;14.48;;
42598;SDS011;28225;42.714;23.860;2023-05-15T00:49:49;17.88;;;14.00;;
42598;SDS011;28225;42.714;23.860;2023-05-15T00:50:05;17.00;;;13.10;;
42598;SDS011;28225;42.714;23.860;2023-05-15T00:50:22;15.88;;;12.25;;
42598;SDS011;28225;42.714;23.860;2023-05-15T00:50:38;15.20;;;12.05;;
42598;SDS011;28225;42.714;23.860;2023-05-15T00:50:56;16.48;;;12.77;;
42598;SDS011;28225;42.714;23.860;2023-05-15T00:51:11;16.58;;;13.05;;
42598;SDS011;28225;42.714;23.860;2023-05-15T00:51:27;16.52;;;12.82;;
42598;SDS011;28225;42.714;23.860;2023-05-15T00:51:42;15.73;;;12.90;;
42598;SDS011;28225;42.714;23.860;2023-05-15T00:51:58;15.70;;;12.73;;
42598;SDS011;28225;42.714;23.860;2023-05-15T00:52:16;16.25;;;12.52;;
42598;SDS011;28225;42.714;23.860;2023-05-15T00:52:31;16.55;;;12.88;;
42598;SDS011;28225;42.714;23.860;2023-05-15T00:52:47;15.43;;;12.70;;
42598;SDS011;28225;42.714;23.860;2023-05-15T00:53:02;15.07;;;12.68;;
42598;SDS011;28225;42.714;23.860;2023-05-15T00:53:18;16.85;;;12.85;;
42598;SDS011;28225;42.714;23.860;2023-05-15T00:53:34;16.67;;;12.83;;
42598;SDS011;28225;42.714;23.860;2023-05-15T00:53:49;14.90;;;13.02;;
42598;SDS011;28225;42.714;23.860;2023-05-15T00:54:06;15.18;;;12.93;;
42598;SDS011;28225;42.714;23.860;2023-05-15T00:54:23;16.08;;;13.13;;
42598;SDS011;28225;42.714;23.860;2023-05-15T00:54:38;17.20;;;13.90;;
42598;SDS011;28225;42.714;23.860;2023-05-15T00:54:54;18.10;;;14.30;;
42598;SDS011;28225;42.714;23.860;2023-05-15T00:55:09;18.05;;;14.10;;
42598;SDS011;28225;42.714;23.860;2023-05-15T00:55:24;17.50;;;13.63;;
42598;SDS011;28225;42.714;23.860;2023-05-15T00:55:40;17.25;;;13.55;;
42598;SDS011;28225;42.714;23.860;2023-05-15T00:55:57;14.43;;;11.98;;
42598;SDS011;28225;42.714;23.860;2023-05-15T00:56:13;11.25;;;9.80;;
42598;SDS011;28225;42.714;23.860;2023-05-15T00:56:29;11.90;;;9.55;;
42598;SDS011;28225;42.714;23.860;2023-05-15T00:56:46;12.75;;;10.50;;
42598;SDS011;28225;42.714;23.860;2023-05-15T00:57:02;13.43;;;11.05;;
42598;SDS011;28225;42.714;23.860;2023-05-15T00:57:19;16.33;;;12.88;;
42598;SDS011;28225;42.714;23.860;2023-05-15T00:57:35;16.57;;;13.13;;
42598;SDS011;28225;42.714;23.860;2023-05-15T00:57:51;18.23;;;13.60;;
42598;SDS011;28225;42.714;23.860;2023-05-15T00:58:07;19.40;;;13.90;;
42598;SDS011;28225;42.714;23.860;2023-05-15T00:58:25;17.80;;;13.80;;
42598;SDS011;28225;42.714;23.860;2023-05-15T00:58:42;17.80;;;14.63;;
42598;SDS011;28225;42.714;23.860;2023-05-15T00:59:03;16.42;;;13.48;;
42598;SDS011;28225;42.714;23.860;2023-05-15T00:59:18;16.63;;;12.75;;
42598;SDS011;28225;42.714;23.860;2023-05-15T00:59:35;15.85;;;13.15;;
42598;SDS011;28225;42.714;23.860;2023-05-15T00:59:51;15.55;;;13.15;;
42598;SDS011;28225;42.714;23.860;2023-05-15T01:00:07;16.92;;;12.63;;
42598;SDS011;28225;42.714;23.860;2023-05-15T01:00:24;15.07;;;12.07;;
42598;SDS011;28225;42.714;23.860;2023-05-15T01:00:41;14.38;;;12.85;;
42598;SDS011;28225;42.714;23.860;2023-05-15T01:00:57;16.00;;;13.93;;
42598;SDS011;28225;42.714;23.860;2023-05-15T01:01:13;15.40;;;13.68;;
42598;SDS011;28225;42.714;23.860;2023-05-15T01:01:28;16.48;;;13.68;;
42598;SDS011;28225;42.714;23.860;2023-05-15T01:01:48;18.55;;;13.88;;
42598;SDS011;28225;42.714;23.860;2023-05-15T01:02:04;18.63;;;13.98;;
42598;SDS011;28225;42.714;23.860;2023-05-15T01:02:19;16.77;;;12.73;;
42598;SDS011;28225;42.714;23.860;2023-05-15T01:02:35;14.70;;;12.67;;
42598;SDS011;28225;42.714;23.860;2023-05-15T01:02:52;15.82;;;13.20;;
42598;SDS011;28225;42.714;23.860;2023-05-15T01:03:08;15.98;;;12.95;;
42598;SDS011;28225;42.714;23.860;2023-05-15T01:03:23;16.27;;;13.60;;
42598;SDS011;28225;42.714;23.860;2023-05-15T01:03:39;16.98;;;13.48;;
42598;SDS011;28225;42.714;23.860;2023-05-15T01:03:54;16.88;;;12.77;;
42598;SDS011;28225;42.714;23.860;2023-05-15T01:04:10;15.80;;;12.93;;
42598;SDS011;28225;42.714;23.860;2023-05-15T01:04:25;16.77;;;13.25;;
42598;SDS011;28225;42.714;23.860;2023-05-15T01:04:41;18.57;;;13.97;;
42598;SDS011;28225;42.714;23.860;2023-05-15T01:04:56;17.10;;;13.93;;
42598;SDS011;28225;42.714;23.860;2023-05-15T01:05:12;16.87;;;13.30;;
42598;SDS011;28225;42.714;23.860;2023-05-15T01:05:27;16.77;;;12.73;;
42598;SDS011;28225;42.714;23.860;2023-05-15T01:05:43;14.05;;;11.95;;
42598;SDS011;28225;42.714;23.860;2023-05-15T01:05:59;14.77;;;12.20;;
42598;SDS011;28225;42.714;23.860;2023-05-15T01:06:14;24.03;;;13.00;;
42598;SDS011;28225;42.714;23.860;2023-05-15T01:06:30;37.33;;;14.82;;
42598;SDS011;28225;42.714;23.860;2023-05-15T01:06:45;37.57;;;15.30;;
42598;SDS011;28225;42.714;23.860;2023-05-15T01:07:02;30.55;;;14.02;;
42598;SDS011;28225;42.714;23.860;2023-05-15T01:07:18;17.67;;;13.20;;
42598;SDS011;28225;42.714;23.860;2023-05-15T01:07:34;17.15;;;13.05;;
42598;SDS011;28225;42.714;23.860;2023-05-15T01:07:55;19.98;;;13.55;;
42598;SDS011;28225;42.714;23.860;2023-05-15T01:08:50;15.90;;;13.10;;
42598;SDS011;28225;42.714;23.860;2023-05-15T01:09:06;15.77;;;12.50;;
42598;SDS011;28225;42.714;23.860;2023-05-15T01:09:25;15.70;;;12.07;;
42598;SDS011;28225;42.714;23.860;2023-05-15T01:09:41;16.55;;;12.57;;
42598;SDS011;28225;42.714;23.860;2023-05-15T01:09:59;16.52;;;13.27;;
42598;SDS011;28225;42.714;23.860;2023-05-15T01:10:17;15.45;;;13.52;;
42598;SDS011;28225;42.714;23.860;2023-05-15T01:10:33;16.98;;;13.40;;
42598;SDS011;28225;42.714;23.860;2023-05-15T01:10:49;17.05;;;13.07;;
42598;SDS011;28225;42.714;23.860;2023-05-15T01:11:06;16.02;;;13.55;;
42598;SDS011;28225;42.714;23.860;2023-05-15T01:11:23;16.13;;;13.60;;
42598;SDS011;28225;42.714;23.860;2023-05-15T01:11:39;17.85;;;13.07;;
42598;SDS011;28225;42.714;23.860;2023-05-15T01:11:56;17.35;;;13.18;;
42598;SDS011;28225;42.714;23.860;2023-05-15T01:12:13;17.17;;;13.27;;
42598;SDS011;28225;42.714;23.860;2023-05-15T01:12:29;16.63;;;12.70;;
42598;SDS011;28225;42.714;23.860;2023-05-15T01:12:46;17.88;;;12.70;;
42598;SDS011;28225;42.714;23.860;2023-05-15T01:13:01;16.53;;;12.47;;
42598;SDS011;28225;42.714;23.860;2023-05-15T01:13:20;16.10;;;12.60;;
42598;SDS011;28225;42.714;23.860;2023-05-15T01:13:36;15.35;;;12.65;;
42598;SDS011;28225;42.714;23.860;2023-05-15T01:13:52;15.18;;;12.57;;
42598;SDS011;28225;42.714;23.860;2023-05-15T01:14:07;15.63;;;12.73;;
42598;SDS011;28225;42.714;23.860;2023-05-15T01:14:23;15.38;;;13.00;;
42598;SDS011;28225;42.714;23.860;2023-05-15T01:14:38;16.10;;;13.07;;
42598;SDS011;28225;42.714;23.860;2023-05-15T01:14:55;15.27;;;12.48;;
42598;SDS011;28225;42.714;23.860;2023-05-15T01:15:10;15.07;;;12.77;;
42598;SDS011;28225;42.714;23.860;2023-05-15T01:15:26;16.13;;;13.70;;
42598;SDS011;28225;42.714;23.860;2023-05-15T01:15:42;15.85;;;12.93;;
42598;SDS011;28225;42.714;23.860;2023-05-15T01:15:57;17.73;;;12.52;;
42598;SDS011;28225;42.714;23.860;2023-05-15T01:16:13;16.30;;;12.20;;
42598;SDS011;28225;42.714;23.860;2023-05-15T01:16:28;16.07;;;12.50;;
42598;SDS011;28225;42.714;23.860;2023-05-15T01:16:44;16.80;;;12.25;;
42598;SDS011;28225;42.714;23.860;2023-05-15T01:17:00;15.93;;;12.10;;
42598;SDS011;28225;42.714;23.860;2023-05-15T01:17:15;22.37;;;13.30;;
42598;SDS011;28225;42.714;23.860;2023-05-15T01:17:31;24.73;;;13.80;;
42598;SDS011;28225;42.714;23.860;2023-05-15T01:17:46;18.65;;;13.65;;
42598;SDS011;28225;42.714;23.860;2023-05-15T01:18:01;17.80;;;14.43;;
42598;SDS011;28225;42.714;23.860;2023-05-15T01:18:17;18.77;;;14.32;;
42598;SDS011;28225;42.714;23.860;2023-05-15T01:18:32;17.13;;;13.10;;
42598;SDS011;28225;42.714;23.860;2023-05-15T01:18:48;16.92;;;13.10;;
42598;SDS011;28225;42.714;23.860;2023-05-15T01:19:04;17.47;;;13.67;;
42598;SDS011;28225;42.714;23.860;2023-05-15T01:19:19;16.77;;;13.13;;
42598;SDS011;28225;42.714;23.860;2023-05-15T01:19:35;16.57;;;12.80;;
42598;SDS011;28225;42.714;23.860;2023-05-15T01:19:50;16.02;;;12.82;;
42598;SDS011;28225;42.714;23.860;2023-05-15T01:20:06;15.93;;;12.85;;
42598;SDS011;28225;42.714;23.860;2023-05-15T01:20:24;16.30;;;12.40;;
42598;SDS011;28225;42.714;23.860;2023-05-15T01:22:43;14.80;;;11.95;;
42598;SDS011;28225;42.714;23.860;2023-05-15T01:23:08;14.25;;;10.88;;
42598;SDS011;28225;42.714;23.860;2023-05-15T01:24:42;19.38;;;15.02;;
42598;SDS011;28225;42.714;23.860;2023-05-15T01:27:53;14.68;;;13.05;;
42598;SDS011;28225;42.714;23.860;2023-05-15T01:28:11;14.50;;;12.48;;
42598;SDS011;28225;42.714;23.860;2023-05-15T01:28:33;15.20;;;13.15;;
42598;SDS011;28225;42.714;23.860;2023-05-15T01:29:00;15.45;;;12.75;;
42598;SDS011;28225;42.714;23.860;2023-05-15T01:29:23;15.93;;;11.77;;
42598;SDS011;28225;42.714;23.860;2023-05-15T01:29:56;15.20;;;11.70;;
42598;SDS011;28225;42.714;23.860;2023-05-15T01:30:17;15.75;;;11.45;;
42598;SDS011;28225;42.714;23.860;2023-05-15T01:30:37;16.67;;;13.00;;
42598;SDS011;28225;42.714;23.860;2023-05-15T01:30:53;18.00;;;13.75;;
42598;SDS011;28225;42.714;23.860;2023-05-15T01:31:13;16.40;;;13.15;;
42598;SDS011;28225;42.714;23.860;2023-05-15T01:31:30;14.20;;;11.90;;
42598;SDS011;28225;42.714;23.860;2023-05-15T01:31:49;15.20;;;12.07;;
42598;SDS011;28225;42.714;23.860;2023-05-15T01:32:21;14.90;;;12.23;;
42598;SDS011;28225;42.714;23.860;2023-05-15T01:33:22;17.75;;;13.70;;
42598;SDS011;28225;42.714;23.860;2023-05-15T01:33:41;15.95;;;12.40;;
42598;SDS011;28225;42.714;23.860;2023-05-15T01:33:58;17.17;;;12.65;;
42598;SDS011;28225;42.714;23.860;2023-05-15T01:34:17;17.15;;;14.23;;
42598;SDS011;28225;42.714;23.860;2023-05-15T01:34:43;19.25;;;13.85;;
42598;SDS011;28225;42.714;23.860;2023-05-15T01:36:07;16.13;;;13.32;;
42598;SDS011;28225;42.714;23.860;2023-05-15T01:36:29;14.70;;;12.52;;
42598;SDS011;28225;42.714;23.860;2023-05-15T01:36:50;15.25;;;12.85;;
42598;SDS011;28225;42.714;23.860;2023-05-15T01:37:07;15.70;;;13.07;;
42598;SDS011;28225;42.714;23.860;2023-05-15T01:37:24;15.95;;;13.45;;
42598;SDS011;28225;42.714;23.860;2023-05-15T01:37:43;16.17;;;13.55;;
42598;SDS011;28225;42.714;23.860;2023-05-15T01:38:42;15.77;;;13.45;;
42598;SDS011;28225;42.714;23.860;2023-05-15T01:38:45;16.95;;;12.63;;
42598;SDS011;28225;42.714;23.860;2023-05-15T01:39:02;17.58;;;13.60;;
42598;SDS011;28225;42.714;23.860;2023-05-15T01:39:19;17.42;;;14.00;;
42598;SDS011;28225;42.714;23.860;2023-05-15T01:39:37;15.90;;;13.18;;
42598;SDS011;28225;42.714;23.860;2023-05-15T01:39:54;15.40;;;12.30;;
42598;SDS011;28225;42.714;23.860;2023-05-15T01:40:13;15.68;;;11.93;;
42598;SDS011;28225;42.714;23.860;2023-05-15T01:40:29;16.02;;;12.40;;
42598;SDS011;28225;42.714;23.860;2023-05-15T01:40:46;17.17;;;12.33;;
42598;SDS011;28225;42.714;23.860;2023-05-15T01:41:15;17.55;;;12.25;;
42598;SDS011;28225;42.714;23.860;2023-05-15T01:41:53;16.98;;;12.65;;
42598;SDS011;28225;42.714;23.860;2023-05-15T01:42:09;14.68;;;12.18;;
42598;SDS011;28225;42.714;23.860;2023-05-15T01:42:29;13.80;;;11.25;;
42598;SDS011;28225;42.714;23.860;2023-05-15T01:42:53;14.10;;;11.90;;
42598;SDS011;28225;42.714;23.860;2023-05-15T01:43:10;16.33;;;12.73;;
42598;SDS011;28225;42.714;23.860;2023-05-15T01:43:27;15.68;;;12.65;;
42598;SDS011;28225;42.714;23.860;2023-05-15T01:43:44;15.57;;;12.65;;